Time;durP1;ratioP1;P1;durP2;ratioP2;P2;SDS_P1;SDS_P2;PMS_P1;PMS_P2;Temp;Humidity;BMP_temperature;BMP_pressure;BME280_temperature;BME280_humidity;BME280_pressure;Samples;Min_cycle;Max_cycle;Signal;HPM_P1;HPM_P2
2020/12/31 00:00:39;;;;;;;2.50;2.40;;;2.80;99.90;;;;;;5038535;28;20170;-76
2020/12/31 00:03:05;;;;;;;2.17;2.07;;;2.80;99.90;;;;;;5046021;28;20225;-76
2020/12/31 00:05:30;;;;;;;2.40;2.30;;;2.80;99.90;;;;;;5035111;28;20183;-77
2020/12/31 00:07:56;;;;;;;2.60;2.40;;;2.80;99.90;;;;;;5038883;28;20179;-77
2020/12/31 00:10:21;;;;;;;2.53;2.33;;;2.70;99.90;;;;;;5043533;28;20197;-78
2020/12/31 00:12:47;;;;;;;2.90;2.70;;;2.70;99.90;;;;;;5037254;28;20688;-78
2020/12/31 00:15:12;;;;;;;2.33;2.13;;;2.80;99.90;;;;;;5032291;28;20265;-78
2020/12/31 00:17:38;;;;;;;2.80;2.60;;;2.80;99.90;;;;;;5040042;28;20237;-79
2020/12/31 00:20:05;;;;;;;2.70;2.50;;;2.80;99.90;;;;;;5044595;28;20205;-79
2020/12/31 00:22:31;;;;;;;3.20;2.90;;;2.70;99.90;;;;;;5039755;28;20481;-77
2020/12/31 00:24:56;;;;;;;2.90;2.70;;;2.70;99.90;;;;;;5044904;28;20425;-78
2020/12/31 00:27:22;;;;;;;3.10;2.70;;;2.80;99.90;;;;;;5046675;28;20195;-77
2020/12/31 00:29:47;;;;;;;4.23;2.60;;;2.70;99.90;;;;;;5050040;28;20186;-78
2020/12/31 00:32:13;;;;;;;3.53;3.23;;;2.80;99.90;;;;;;5049585;28;20293;-78
2020/12/31 00:34:39;;;;;;;2.57;2.37;;;2.80;99.90;;;;;;5035430;28;20194;-77
2020/12/31 00:37:04;;;;;;;3.50;3.20;;;2.90;99.90;;;;;;5039795;28;20190;-77
2020/12/31 00:39:31;;;;;;;3.83;2.87;;;2.90;99.90;;;;;;5044575;28;20511;-79
2020/12/31 00:41:56;;;;;;;3.30;3.00;;;2.90;99.90;;;;;;5036783;28;20244;-78
2020/12/31 00:44:22;;;;;;;3.07;2.87;;;3.00;99.90;;;;;;5040483;28;20434;-78
2020/12/31 00:46:47;;;;;;;2.57;2.47;;;2.90;99.90;;;;;;5036011;28;20190;-77
2020/12/31 00:49:13;;;;;;;2.83;2.60;;;2.90;99.90;;;;;;5037078;28;20182;-78
2020/12/31 00:51:39;;;;;;;3.33;3.10;;;3.00;99.90;;;;;;5040029;28;20199;-79
2020/12/31 00:54:04;;;;;;;2.93;2.60;;;3.00;99.90;;;;;;5039981;28;20413;-79
2020/12/31 00:56:30;;;;;;;2.97;2.77;;;3.00;99.90;;;;;;5034484;28;20556;-78
2020/12/31 00:58:55;;;;;;;2.33;2.20;;;3.00;99.90;;;;;;5037326;28;20187;-78
2020/12/31 01:01:21;;;;;;;2.10;1.90;;;3.00;99.90;;;;;;5040680;28;20211;-77
2020/12/31 01:03:46;;;;;;;1.70;1.60;;;3.00;99.90;;;;;;5045193;28;20225;-77
2020/12/31 01:06:12;;;;;;;3.50;2.30;;;3.00;99.90;;;;;;5043271;28;20176;-77
2020/12/31 01:08:38;;;;;;;2.10;1.90;;;3.10;99.90;;;;;;5036494;28;20266;-77
2020/12/31 01:11:04;;;;;;;2.67;2.47;;;3.00;99.90;;;;;;5035541;28;20180;-77
2020/12/31 01:13:30;;;;;;;2.30;2.10;;;3.00;99.90;;;;;;5034575;28;20515;-78
2020/12/31 01:15:55;;;;;;;2.87;2.67;;;3.00;99.90;;;;;;5038270;28;20431;-77
2020/12/31 01:18:21;;;;;;;3.70;3.17;;;3.00;99.90;;;;;;5036322;28;20569;-77
2020/12/31 01:20:46;;;;;;;2.53;2.33;;;3.10;99.90;;;;;;5041448;28;20186;-77
2020/12/31 01:23:12;;;;;;;2.70;1.93;;;3.10;99.90;;;;;;5038866;28;20209;-77
2020/12/31 01:25:38;;;;;;;3.50;2.63;;;3.00;99.90;;;;;;5030924;28;20172;-79
2020/12/31 01:28:04;;;;;;;4.30;2.83;;;3.00;99.90;;;;;;5042797;28;20677;-77
2020/12/31 01:30:30;;;;;;;3.30;3.00;;;2.90;99.90;;;;;;5042475;28;20674;-77
2020/12/31 01:32:56;;;;;;;2.53;2.30;;;2.80;99.90;;;;;;5035689;28;20450;-77
2020/12/31 01:35:21;;;;;;;2.73;2.53;;;2.80;99.90;;;;;;5036515;28;20789;-78
2020/12/31 01:37:48;;;;;;;2.30;2.20;;;2.70;99.90;;;;;;5027377;28;20190;-77
2020/12/31 01:40:13;;;;;;;2.70;2.23;;;2.60;99.90;;;;;;5031039;28;20195;-77
2020/12/31 01:42:41;;;;;;;2.60;2.40;;;2.50;99.90;;;;;;5028052;28;20477;-78
2020/12/31 01:45:06;;;;;;;3.10;2.50;;;2.50;99.90;;;;;;5021503;28;20182;-78
2020/12/31 01:47:32;;;;;;;2.23;2.13;;;2.50;99.90;;;;;;5029711;28;20849;-79
2020/12/31 01:49:57;;;;;;;2.50;2.17;;;2.40;99.90;;;;;;5029971;28;20187;-79
2020/12/31 01:52:23;;;;;;;3.30;3.00;;;2.40;99.90;;;;;;5033174;28;20234;-79
2020/12/31 01:54:50;;;;;;;4.13;3.20;;;2.30;99.90;;;;;;5035108;28;20179;-79
2020/12/31 01:57:15;;;;;;;3.43;2.40;;;2.30;99.90;;;;;;5036992;28;20216;-80
2020/12/31 01:59:41;;;;;;;2.40;2.20;;;2.20;99.90;;;;;;5039245;28;20454;-79
2020/12/31 02:02:08;;;;;;;4.00;2.97;;;2.20;99.90;;;;;;5041413;28;20643;-79
2020/12/31 02:04:35;;;;;;;2.63;2.43;;;2.10;99.90;;;;;;5032644;28;20517;-78
2020/12/31 02:07:01;;;;;;;3.10;2.80;;;2.10;99.90;;;;;;5033874;28;20815;-77
2020/12/31 02:09:27;;;;;;;4.37;3.13;;;2.20;99.90;;;;;;5032902;28;20211;-76
2020/12/31 02:11:53;;;;;;;3.67;3.43;;;2.30;99.90;;;;;;5031489;28;20195;-78
2020/12/31 02:14:18;;;;;;;3.60;3.00;;;2.40;99.90;;;;;;5031385;28;20412;-78
2020/12/31 02:16:44;;;;;;;3.10;2.70;;;2.50;99.90;;;;;;5034411;28;20571;-77
2020/12/31 02:19:16;;;;;;;4.30;3.17;;;2.60;99.90;;;;;;5038883;28;20181;-78
2020/12/31 02:21:46;;;;;;;3.30;3.10;;;2.60;99.90;;;;;;5041631;28;20228;-77
2020/12/31 02:24:13;;;;;;;3.90;3.60;;;2.70;99.90;;;;;;5045285;28;20973;-77
2020/12/31 02:26:40;;;;;;;3.03;2.70;;;2.70;99.90;;;;;;5037591;28;20512;-78
2020/12/31 02:29:07;;;;;;;3.90;3.47;;;2.70;99.90;;;;;;5058235;28;20439;-77
2020/12/31 02:31:33;;;;;;;8.03;3.50;;;2.60;99.90;;;;;;5036632;28;20445;-77
2020/12/31 02:33:58;;;;;;;4.40;3.27;;;2.60;99.90;;;;;;5041779;28;20465;-77
2020/12/31 02:36:29;;;;;;;3.23;3.00;;;2.60;99.90;;;;;;5044538;28;20527;-78
2020/12/31 02:38:57;;;;;;;3.23;3.03;;;2.60;99.90;;;;;;5042619;28;20188;-78
2020/12/31 02:41:22;;;;;;;3.93;3.57;;;2.60;99.90;;;;;;5039706;28;20452;-77
2020/12/31 02:43:48;;;;;;;3.30;2.97;;;2.60;99.90;;;;;;5048024;28;20450;-77
2020/12/31 02:46:15;;;;;;;3.20;2.90;;;2.60;99.90;;;;;;5044952;28;20207;-77
2020/12/31 02:48:41;;;;;;;3.57;3.27;;;2.60;99.90;;;;;;5046569;28;20638;-78
2020/12/31 02:51:08;;;;;;;4.23;3.80;;;2.60;99.90;;;;;;5040804;28;20503;-78
2020/12/31 02:53:34;;;;;;;3.13;2.90;;;2.60;99.90;;;;;;5042115;28;20459;-77
2020/12/31 02:56:01;;;;;;;4.73;3.40;;;2.60;99.90;;;;;;5045427;28;20422;-77
2020/12/31 02:58:26;;;;;;;5.10;2.77;;;2.70;99.90;;;;;;5034722;28;20806;-77
2020/12/31 03:00:52;;;;;;;5.30;3.40;;;2.60;99.90;;;;;;5036490;28;20407;-77
2020/12/31 03:03:17;;;;;;;5.27;2.60;;;2.60;99.90;;;;;;5037603;28;20279;-77
2020/12/31 03:05:43;;;;;;;8.67;3.53;;;2.60;99.90;;;;;;5048798;28;20271;-76
2020/12/31 03:08:09;;;;;;;2.83;2.63;;;2.60;99.90;;;;;;5050708;28;20232;-78
2020/12/31 03:10:35;;;;;;;3.90;3.00;;;2.60;99.90;;;;;;5050118;28;20663;-77
2020/12/31 03:13:00;;;;;;;2.63;2.30;;;2.60;99.90;;;;;;5046471;28;20474;-77
2020/12/31 03:15:26;;;;;;;3.33;2.90;;;2.50;99.90;;;;;;5024844;28;20185;-77
2020/12/31 03:17:51;;;;;;;5.10;3.43;;;2.40;99.90;;;;;;5048989;28;20181;-77
2020/12/31 03:20:17;;;;;;;4.40;3.70;;;2.40;99.90;;;;;;5038341;28;20239;-78
2020/12/31 03:22:42;;;;;;;3.27;3.00;;;2.30;99.90;;;;;;5048172;28;20209;-77
2020/12/31 03:25:09;;;;;;;3.40;3.10;;;2.30;99.90;;;;;;5048882;28;20187;-77
2020/12/31 03:27:35;;;;;;;3.87;3.37;;;2.20;99.90;;;;;;5040547;28;20185;-78
2020/12/31 03:30:01;;;;;;;4.70;3.60;;;2.20;99.90;;;;;;5045894;28;20430;-77
2020/12/31 03:32:26;;;;;;;4.87;3.27;;;2.10;99.90;;;;;;5045682;28;20459;-78
2020/12/31 03:34:52;;;;;;;3.10;2.70;;;2.00;99.90;;;;;;5037959;28;20499;-77
2020/12/31 03:37:17;;;;;;;3.40;3.20;;;2.00;99.90;;;;;;5039372;28;20187;-77
2020/12/31 03:39:43;;;;;;;3.53;3.00;;;1.90;99.90;;;;;;5039607;28;20188;-77
2020/12/31 03:42:09;;;;;;;5.40;3.23;;;1.70;99.90;;;;;;5037756;28;20223;-77
2020/12/31 03:44:35;;;;;;;2.93;2.73;;;1.60;99.90;;;;;;5036039;28;20184;-78
2020/12/31 03:47:01;;;;;;;4.70;3.20;;;1.50;99.90;;;;;;5048777;28;20477;-77
2020/12/31 03:49:26;;;;;;;2.63;2.40;;;1.40;99.90;;;;;;5040033;28;20429;-78
2020/12/31 03:51:52;;;;;;;5.33;2.80;;;1.30;99.90;;;;;;5044979;28;20223;-78
2020/12/31 03:54:18;;;;;;;3.77;3.30;;;1.30;99.90;;;;;;5041454;28;20291;-78
2020/12/31 03:56:43;;;;;;;3.03;2.77;;;1.20;99.90;;;;;;5040562;28;20181;-78
2020/12/31 03:59:09;;;;;;;3.23;3.00;;;1.20;99.90;;;;;;5040346;28;20181;-77
2020/12/31 04:01:34;;;;;;;3.20;2.90;;;1.20;99.90;;;;;;5036857;28;20207;-77
2020/12/31 04:04:01;;;;;;;2.77;2.57;;;1.10;99.90;;;;;;5040499;28;20193;-78
2020/12/31 04:06:30;;;;;;;6.23;3.70;;;1.10;99.90;;;;;;5045760;28;20178;-77
2020/12/31 04:08:55;;;;;;;3.03;2.63;;;1.00;99.90;;;;;;5030886;28;20445;-78
2020/12/31 04:11:21;;;;;;;3.90;2.43;;;1.00;99.90;;;;;;5040997;28;20528;-77
2020/12/31 04:13:47;;;;;;;3.23;2.90;;;0.90;99.90;;;;;;5044349;28;20248;-77
2020/12/31 04:16:13;;;;;;;7.13;3.80;;;0.80;99.90;;;;;;5041225;28;20228;-77
2020/12/31 04:18:38;;;;;;;4.23;3.33;;;0.80;99.90;;;;;;5043878;28;20429;-78
2020/12/31 04:21:04;;;;;;;3.40;3.10;;;0.70;99.90;;;;;;5040698;28;20189;-78
2020/12/31 04:23:30;;;;;;;3.20;2.90;;;0.60;99.90;;;;;;5040043;28;20210;-77
2020/12/31 04:25:55;;;;;;;3.40;3.10;;;0.60;99.90;;;;;;5044560;28;20475;-77
2020/12/31 04:28:21;;;;;;;4.00;2.40;;;0.50;99.90;;;;;;5038929;28;20346;-77
2020/12/31 04:30:47;;;;;;;3.47;3.17;;;0.40;99.90;;;;;;5034727;28;20188;-77
2020/12/31 04:33:13;;;;;;;2.90;2.60;;;0.40;99.90;;;;;;5037629;28;20208;-77
2020/12/31 04:35:39;;;;;;;6.37;3.40;;;0.30;99.90;;;;;;5040210;28;20791;-77
2020/12/31 04:38:05;;;;;;;3.80;3.13;;;0.30;99.90;;;;;;5041416;28;20434;-77
2020/12/31 04:40:34;;;;;;;4.53;3.13;;;0.30;99.90;;;;;;5039077;28;20182;-77
2020/12/31 04:43:00;;;;;;;5.67;3.10;;;0.20;99.90;;;;;;5041195;28;20450;-77
2020/12/31 04:45:28;;;;;;;3.70;2.80;;;0.10;99.90;;;;;;5041027;28;20436;-77
2020/12/31 04:48:21;;;;;;;4.13;3.67;;;0.10;99.90;;;;;;5040256;28;20432;-78
2020/12/31 04:50:49;;;;;;;4.23;2.40;;;0.00;99.90;;;;;;5037542;28;20749;-77
2020/12/31 04:53:15;;;;;;;4.20;2.73;;;0.00;99.90;;;;;;5041823;28;20487;-77
2020/12/31 04:55:43;;;;;;;6.30;2.90;;;-0.10;99.90;;;;;;5042662;28;20898;-77
2020/12/31 04:58:09;;;;;;;4.17;3.50;;;0.00;99.90;;;;;;5039052;28;20734;-77
2020/12/31 05:00:36;;;;;;;4.30;3.33;;;0.00;99.90;;;;;;5042189;28;20561;-77
2020/12/31 05:03:02;;;;;;;3.93;3.03;;;-0.10;99.90;;;;;;5042766;28;20465;-77
2020/12/31 05:05:28;;;;;;;3.60;2.50;;;-0.20;99.90;;;;;;5039393;28;20417;-77
2020/12/31 05:07:55;;;;;;;3.50;2.77;;;-0.10;99.90;;;;;;5040331;28;20947;-77
2020/12/31 05:10:21;;;;;;;3.80;3.30;;;-0.20;99.90;;;;;;5041018;28;20482;-78
2020/12/31 05:12:55;;;;;;;4.20;2.80;;;-0.10;99.90;;;;;;5038281;28;20908;-78
2020/12/31 05:15:38;;;;;;;3.77;3.10;;;-0.10;99.90;;;;;;5039026;28;20211;-78
2020/12/31 05:18:23;;;;;;;5.87;3.23;;;-0.20;99.90;;;;;;5035316;28;20753;-77
2020/12/31 05:20:51;;;;;;;3.93;2.80;;;-0.20;99.90;;;;;;5038708;28;20408;-78
2020/12/31 05:23:19;;;;;;;4.37;2.50;;;-0.20;99.90;;;;;;5040130;28;20495;-79
2020/12/31 05:25:46;;;;;;;3.93;3.13;;;-0.30;99.90;;;;;;5041014;28;20425;-75
2020/12/31 05:28:29;;;;;;;2.80;2.60;;;-0.30;99.90;;;;;;5039421;28;20411;-78
2020/12/31 05:30:57;;;;;;;9.20;3.23;;;-0.40;99.90;;;;;;5038482;28;20943;-77
2020/12/31 05:33:28;;;;;;;4.10;3.17;;;-0.40;99.90;;;;;;5040241;28;20958;-77
2020/12/31 05:36:16;;;;;;;3.60;2.50;;;-0.50;99.90;;;;;;5060500;28;20407;-78
2020/12/31 05:38:55;;;;;;;3.43;3.00;;;-0.50;99.90;;;;;;5035227;28;20399;-77
2020/12/31 05:41:38;;;;;;;4.63;3.63;;;-0.50;99.90;;;;;;5041443;28;20790;-77
2020/12/31 05:44:07;;;;;;;3.77;2.47;;;-0.50;99.90;;;;;;5033680;28;20427;-77
2020/12/31 05:46:34;;;;;;;4.40;2.40;;;-0.50;99.90;;;;;;5037445;28;20395;-78
2020/12/31 05:49:05;;;;;;;4.00;3.00;;;-0.60;99.90;;;;;;5043248;28;20413;-77
2020/12/31 05:51:35;;;;;;;4.47;3.53;;;-0.60;99.90;;;;;;5041938;28;20454;-79
2020/12/31 05:54:14;;;;;;;3.73;3.10;;;-0.70;99.90;;;;;;5041859;28;20418;-77
2020/12/31 05:56:41;;;;;;;5.80;3.80;;;-0.60;99.90;;;;;;5039724;28;20423;-78
2020/12/31 05:59:16;;;;;;;4.10;3.47;;;-0.70;99.90;;;;;;5029571;28;20468;-78
2020/12/31 06:01:53;;;;;;;3.90;3.60;;;-0.60;99.90;;;;;;5041936;28;20548;-78
2020/12/31 06:04:19;;;;;;;6.70;3.00;;;-0.70;99.90;;;;;;5037107;28;20399;-77
2020/12/31 06:06:52;;;;;;;3.67;2.70;;;-0.70;99.90;;;;;;5038265;28;20425;-77
2020/12/31 06:09:29;;;;;;;4.20;2.90;;;-0.70;99.90;;;;;;5040493;28;20398;-77
2020/12/31 06:12:06;;;;;;;3.80;3.30;;;-0.70;99.90;;;;;;5042576;28;20806;-77
2020/12/31 06:14:32;;;;;;;3.70;3.20;;;-0.70;99.90;;;;;;5042422;28;20485;-77
2020/12/31 06:17:02;;;;;;;5.17;3.30;;;-0.70;99.90;;;;;;5045239;28;20417;-77
2020/12/31 06:19:32;;;;;;;4.27;3.33;;;-0.60;99.90;;;;;;5041355;28;20434;-77
2020/12/31 06:22:09;;;;;;;3.10;2.70;;;-0.60;99.90;;;;;;5043339;28;20442;-77
2020/12/31 06:24:42;;;;;;;2.97;2.70;;;-0.70;99.90;;;;;;5038727;28;20432;-77
2020/12/31 06:27:12;;;;;;;3.20;2.53;;;-0.70;99.90;;;;;;5041128;28;20447;-77
2020/12/31 06:29:43;;;;;;;3.10;2.70;;;-0.70;99.90;;;;;;5036584;28;20431;-77
2020/12/31 06:32:35;;;;;;;4.13;2.27;;;-0.60;99.90;;;;;;5033067;28;20427;-79
2020/12/31 06:35:04;;;;;;;6.70;3.33;;;-0.70;99.90;;;;;;5035409;28;20483;-77
2020/12/31 06:37:30;;;;;;;3.20;2.90;;;-0.60;99.90;;;;;;5045280;28;20403;-78
2020/12/31 06:40:29;;;;;;;3.00;2.40;;;-0.60;99.90;;;;;;5043248;28;20472;-78
2020/12/31 06:43:13;;;;;;;2.50;2.30;;;-0.60;99.90;;;;;;5039964;28;20479;-77
2020/12/31 06:45:47;;;;;;;2.23;2.07;;;-0.50;99.90;;;;;;5036268;28;20405;-77
2020/12/31 06:48:25;;;;;;;2.83;2.53;;;-0.50;99.90;;;;;;5041798;28;20420;-76
2020/12/31 06:50:57;;;;;;;4.73;2.57;;;-0.50;99.90;;;;;;5042217;28;20391;-76
2020/12/31 06:53:46;;;;;;;5.87;3.60;;;-0.50;99.90;;;;;;5043711;28;20422;-76
2020/12/31 06:56:13;;;;;;;4.93;3.00;;;-0.60;99.90;;;;;;5037784;28;20425;-77
2020/12/31 06:58:43;;;;;;;3.97;3.00;;;-0.60;99.90;;;;;;5041965;28;20421;-76
2020/12/31 07:01:25;;;;;;;4.43;3.20;;;-0.50;99.90;;;;;;5034823;28;20405;-77
2020/12/31 07:03:51;;;;;;;3.43;2.70;;;-0.60;99.90;;;;;;5040421;28;20458;-77
2020/12/31 07:06:23;;;;;;;5.60;3.27;;;-0.60;99.90;;;;;;5042263;28;20920;-76
2020/12/31 07:09:25;;;;;;;3.80;3.40;;;-0.60;99.90;;;;;;5042493;28;20895;-76
2020/12/31 07:11:57;;;;;;;3.47;3.10;;;-0.60;99.90;;;;;;5039511;28;20548;-73
2020/12/31 07:14:25;;;;;;;3.87;2.93;;;-0.50;99.90;;;;;;5042699;28;20476;-73
2020/12/31 07:17:07;;;;;;;3.67;3.00;;;-0.40;99.90;;;;;;5041416;28;20847;-73
2020/12/31 07:19:37;;;;;;;6.00;3.93;;;-0.30;99.90;;;;;;5043267;28;20426;-73
2020/12/31 07:22:14;;;;;;;4.80;3.90;;;-0.10;99.90;;;;;;5039515;28;20489;-73
2020/12/31 07:25:07;;;;;;;5.23;3.40;;;-0.10;99.90;;;;;;5037252;28;20416;-72
2020/12/31 07:27:35;;;;;;;7.13;3.60;;;0.00;99.90;;;;;;5039819;28;20422;-72
2020/12/31 07:30:13;;;;;;;6.10;3.73;;;0.00;99.90;;;;;;5044128;28;20923;-73
2020/12/31 07:32:58;;;;;;;3.87;3.47;;;0.10;99.90;;;;;;5037768;28;20503;-72
2020/12/31 07:35:33;;;;;;;7.87;3.60;;;0.10;99.90;;;;;;5042311;28;20464;-74
2020/12/31 07:37:59;;;;;;;4.40;4.00;;;0.10;99.90;;;;;;5042395;28;20854;-72
2020/12/31 07:40:50;;;;;;;5.97;4.63;;;0.20;99.90;;;;;;5041962;28;20383;-72
2020/12/31 07:43:18;;;;;;;4.67;4.20;;;0.20;99.90;;;;;;5039256;28;20209;-73
2020/12/31 07:45:47;;;;;;;5.60;4.00;;;0.30;99.90;;;;;;5043631;28;20416;-73
2020/12/31 07:48:13;;;;;;;5.60;4.20;;;0.30;99.90;;;;;;5040726;28;20404;-72
2020/12/31 07:50:39;;;;;;;10.83;4.77;;;0.40;99.90;;;;;;5043459;28;20394;-73
2020/12/31 07:53:07;;;;;;;5.00;3.87;;;0.50;99.90;;;;;;5040820;28;20415;-73
2020/12/31 07:55:35;;;;;;;6.00;3.90;;;0.60;99.90;;;;;;5038560;28;20428;-72
2020/12/31 07:58:02;;;;;;;5.37;4.67;;;0.60;99.90;;;;;;5042371;28;20398;-72
2020/12/31 08:00:28;;;;;;;7.53;4.10;;;0.70;99.90;;;;;;5037175;28;20942;-72
2020/12/31 08:02:56;;;;;;;4.63;3.73;;;0.80;99.90;;;;;;5038281;28;20438;-73
2020/12/31 08:05:24;;;;;;;6.63;4.90;;;0.80;99.90;;;;;;5038885;28;20802;-72
2020/12/31 08:07:55;;;;;;;5.33;4.20;;;0.90;99.90;;;;;;5040825;28;20421;-73
2020/12/31 08:10:21;;;;;;;7.23;4.60;;;1.00;99.90;;;;;;5037399;28;20456;-74
2020/12/31 08:12:55;;;;;;;7.43;5.57;;;1.10;99.90;;;;;;5042196;28;20492;-72
2020/12/31 08:15:22;;;;;;;4.27;3.87;;;1.20;99.90;;;;;;5040367;28;20199;-73
2020/12/31 08:17:50;;;;;;;7.23;4.00;;;1.30;99.90;;;;;;5042123;28;20443;-72
2020/12/31 08:20:17;;;;;;;4.87;4.47;;;1.40;99.90;;;;;;5039590;28;20516;-72
2020/12/31 08:22:42;;;;;;;6.73;5.40;;;1.40;99.90;;;;;;5041816;28;20457;-73
2020/12/31 08:25:14;;;;;;;7.20;5.23;;;1.50;99.90;;;;;;5040084;28;20974;-73
2020/12/31 08:27:41;;;;;;;5.50;3.60;;;1.60;99.90;;;;;;5036859;28;20167;-72
2020/12/31 08:30:09;;;;;;;6.17;5.07;;;1.70;99.90;;;;;;5043517;28;20393;-73
2020/12/31 08:32:49;;;;;;;6.30;5.00;;;1.70;99.90;;;;;;5035874;28;20872;-73
2020/12/31 08:35:24;;;;;;;6.90;5.70;;;1.80;99.90;;;;;;5037790;28;20428;-75
2020/12/31 08:38:09;;;;;;;6.47;5.77;;;1.80;99.90;;;;;;5041697;28;20433;-73
2020/12/31 08:40:49;;;;;;;5.17;4.67;;;1.90;99.90;;;;;;5036808;28;20737;-73
2020/12/31 08:43:23;;;;;;;8.70;5.70;;;1.90;99.90;;;;;;5037553;28;20527;-74
2020/12/31 08:45:50;;;;;;;10.30;5.63;;;1.90;99.90;;;;;;5041815;28;20796;-73
2020/12/31 08:48:23;;;;;;;7.43;5.57;;;1.90;99.90;;;;;;5039572;28;20409;-73
2020/12/31 08:51:05;;;;;;;6.73;5.87;;;2.00;99.90;;;;;;5036589;28;20488;-73
2020/12/31 08:53:32;;;;;;;10.97;5.30;;;2.10;99.90;;;;;;5039188;28;21038;-74
2020/12/31 08:55:58;;;;;;;5.73;4.60;;;2.10;99.90;;;;;;5040046;28;20515;-73
2020/12/31 08:58:30;;;;;;;7.33;5.87;;;2.20;99.90;;;;;;5040881;28;20530;-73
2020/12/31 09:00:57;;;;;;;10.03;6.70;;;2.30;99.90;;;;;;5041846;28;20225;-73
2020/12/31 09:03:24;;;;;;;10.33;6.90;;;2.30;99.90;;;;;;5040647;28;20487;-73
2020/12/31 09:05:59;;;;;;;7.03;6.33;;;2.30;99.90;;;;;;5039297;28;20430;-73
2020/12/31 09:08:27;;;;;;;7.57;5.47;;;2.30;99.90;;;;;;5041403;28;20508;-73
2020/12/31 09:11:03;;;;;;;7.93;5.40;;;2.40;99.90;;;;;;5038431;28;20430;-73
2020/12/31 09:13:34;;;;;;;8.30;5.13;;;2.50;99.90;;;;;;5041813;28;21091;-73
2020/12/31 09:16:27;;;;;;;9.90;7.73;;;2.50;99.90;;;;;;5039014;28;20942;-74
2020/12/31 09:18:59;;;;;;;7.47;5.73;;;2.60;99.90;;;;;;5037297;28;20491;-73
2020/12/31 09:21:29;;;;;;;7.13;5.60;;;2.60;99.90;;;;;;5038316;28;20808;-73
2020/12/31 09:23:55;;;;;;;8.70;5.97;;;2.60;99.90;;;;;;5040447;28;20443;-73
2020/12/31 09:26:25;;;;;;;13.33;8.67;;;2.70;99.90;;;;;;5039683;28;20437;-73
2020/12/31 09:28:50;;;;;;;10.53;7.17;;;2.70;99.90;;;;;;5041291;28;20431;-73
2020/12/31 09:31:18;;;;;;;12.73;6.60;;;2.70;99.90;;;;;;5037687;28;20434;-72
2020/12/31 09:33:47;;;;;;;7.27;6.00;;;2.70;99.90;;;;;;5040980;28;20730;-72
2020/12/31 09:36:23;;;;;;;6.87;6.17;;;2.70;99.90;;;;;;5040778;28;20404;-75
2020/12/31 09:38:48;;;;;;;10.90;5.93;;;2.70;99.90;;;;;;5036399;28;20423;-72
2020/12/31 09:41:14;;;;;;;7.10;6.40;;;2.80;99.90;;;;;;5039254;28;20425;-72
2020/12/31 09:43:39;;;;;;;7.37;5.90;;;2.80;99.90;;;;;;5036785;28;20612;-74
2020/12/31 09:46:05;;;;;;;9.40;6.50;;;2.90;99.90;;;;;;5042662;28;20173;-73
2020/12/31 09:48:30;;;;;;;12.07;7.10;;;2.90;99.90;;;;;;5042563;28;20178;-73
2020/12/31 09:50:56;;;;;;;7.67;6.33;;;3.00;99.90;;;;;;5045177;28;20172;-73
2020/12/31 09:53:21;;;;;;;7.83;5.83;;;3.00;99.90;;;;;;5032135;28;20202;-72
2020/12/31 09:55:47;;;;;;;5.90;5.33;;;3.10;99.90;;;;;;5045688;28;20655;-72
2020/12/31 09:58:12;;;;;;;7.53;5.60;;;3.20;99.90;;;;;;5043039;28;20182;-74
2020/12/31 10:00:38;;;;;;;6.43;5.80;;;3.10;99.90;;;;;;5042146;28;20316;-73
2020/12/31 10:03:03;;;;;;;7.37;5.87;;;3.20;99.90;;;;;;5045864;28;20220;-73
2020/12/31 10:05:29;;;;;;;5.90;4.60;;;3.20;99.90;;;;;;5040119;28;20644;-72
2020/12/31 10:07:54;;;;;;;7.13;5.00;;;3.10;99.90;;;;;;5044817;28;20547;-75
2020/12/31 10:10:20;;;;;;;4.57;4.17;;;3.10;99.90;;;;;;5042037;28;20203;-72
2020/12/31 10:12:45;;;;;;;4.40;4.00;;;3.20;99.90;;;;;;5040148;28;20209;-73
2020/12/31 10:15:11;;;;;;;5.93;4.93;;;3.20;99.90;;;;;;5041212;28;20687;-75
2020/12/31 10:17:36;;;;;;;6.03;4.70;;;3.20;99.90;;;;;;5042086;28;20182;-72
2020/12/31 10:20:03;;;;;;;4.77;4.37;;;3.20;99.90;;;;;;5040141;28;20213;-73
2020/12/31 10:22:29;;;;;;;4.80;4.40;;;3.30;99.90;;;;;;5041417;28;21001;-73
2020/12/31 10:24:54;;;;;;;4.67;4.17;;;3.40;99.90;;;;;;5042858;28;20432;-72
2020/12/31 10:27:20;;;;;;;4.50;4.20;;;3.50;99.90;;;;;;5039271;28;20595;-73
2020/12/31 10:29:45;;;;;;;6.13;3.90;;;3.70;99.90;;;;;;5044772;28;20647;-73
2020/12/31 10:32:11;;;;;;;4.97;3.77;;;3.90;99.90;;;;;;5035944;28;20202;-72
2020/12/31 10:34:37;;;;;;;4.77;4.27;;;4.00;99.90;;;;;;5037015;28;20243;-73
2020/12/31 10:37:02;;;;;;;4.63;4.20;;;4.00;99.90;;;;;;5038366;28;20183;-72
2020/12/31 10:39:28;;;;;;;4.90;3.90;;;4.00;99.90;;;;;;5041128;28;20183;-74
2020/12/31 10:41:53;;;;;;;5.93;4.30;;;4.10;99.90;;;;;;5041042;28;20214;-74
2020/12/31 10:44:19;;;;;;;3.30;3.00;;;4.20;99.90;;;;;;5041321;28;20185;-74
2020/12/31 10:46:45;;;;;;;7.67;4.00;;;4.10;99.90;;;;;;5044707;28;20179;-75
2020/12/31 10:49:11;;;;;;;3.80;3.47;;;4.10;99.90;;;;;;5038018;28;20425;-75
2020/12/31 10:51:38;;;;;;;4.30;3.90;;;4.00;99.90;;;;;;5040457;28;20462;-75
2020/12/31 10:54:04;;;;;;;3.67;3.23;;;3.90;99.90;;;;;;5063889;28;20443;-73
2020/12/31 10:56:30;;;;;;;3.87;3.03;;;3.80;99.90;;;;;;5034644;28;20428;-73
2020/12/31 10:58:57;;;;;;;3.47;3.20;;;3.60;99.90;;;;;;5036699;28;20991;-74
2020/12/31 11:01:22;;;;;;;6.10;3.27;;;3.60;99.90;;;;;;5038392;28;20440;-74
2020/12/31 11:03:48;;;;;;;4.00;3.60;;;3.60;99.90;;;;;;5036971;28;20415;-72
2020/12/31 11:06:31;;;;;;;4.27;3.90;;;3.50;99.90;;;;;;5039677;28;20185;-74
2020/12/31 11:08:57;;;;;;;6.80;3.70;;;3.40;99.90;;;;;;5039865;28;20180;-74
2020/12/31 11:11:26;;;;;;;5.00;3.57;;;3.20;99.90;;;;;;5041827;28;20539;-72
2020/12/31 11:13:53;;;;;;;3.80;3.37;;;3.20;99.90;;;;;;5042212;28;20281;-73
2020/12/31 11:16:19;;;;;;;7.53;3.93;;;3.20;99.90;;;;;;5040345;28;20421;-73
2020/12/31 11:18:44;;;;;;;5.77;4.63;;;3.20;99.90;;;;;;5041378;28;20399;-72
2020/12/31 11:21:12;;;;;;;4.47;3.80;;;3.30;99.90;;;;;;5042854;28;20430;-74
2020/12/31 11:23:38;;;;;;;4.20;3.80;;;3.40;99.90;;;;;;5040113;28;20206;-73
2020/12/31 11:26:10;;;;;;;6.60;4.10;;;3.40;99.90;;;;;;5041105;28;20486;-73
2020/12/31 11:28:35;;;;;;;4.50;4.00;;;3.50;99.90;;;;;;5040835;28;20177;-74
2020/12/31 11:31:01;;;;;;;4.53;3.97;;;3.50;99.90;;;;;;5037285;28;20481;-72
2020/12/31 11:33:26;;;;;;;5.80;3.20;;;3.50;99.90;;;;;;5040809;28;20211;-73
2020/12/31 11:35:52;;;;;;;4.13;3.77;;;3.40;99.90;;;;;;5038635;28;20592;-74
2020/12/31 11:38:17;;;;;;;5.73;4.43;;;3.50;99.90;;;;;;5042582;28;20398;-74
2020/12/31 11:40:43;;;;;;;5.03;4.63;;;3.60;99.90;;;;;;5041286;28;20186;-72
2020/12/31 11:43:08;;;;;;;4.97;4.10;;;3.70;99.90;;;;;;5040571;28;20210;-73
2020/12/31 11:45:34;;;;;;;7.30;4.50;;;3.90;99.90;;;;;;5040457;28;20644;-72
2020/12/31 11:47:59;;;;;;;4.10;3.50;;;4.10;99.90;;;;;;5039995;28;20272;-73
2020/12/31 11:50:25;;;;;;;5.63;3.87;;;4.30;99.90;;;;;;5038213;28;20521;-73
2020/12/31 11:52:51;;;;;;;6.33;4.27;;;4.10;99.90;;;;;;5034019;28;20198;-73
2020/12/31 11:55:17;;;;;;;6.03;4.30;;;4.10;99.90;;;;;;5039325;28;20182;-73
2020/12/31 11:57:42;;;;;;;5.80;3.80;;;4.00;99.90;;;;;;5038389;28;20455;-73
2020/12/31 12:00:08;;;;;;;4.03;3.70;;;4.00;99.90;;;;;;5042343;28;20188;-73
2020/12/31 12:02:34;;;;;;;8.00;5.07;;;4.00;99.90;;;;;;5037029;28;20225;-73
2020/12/31 12:04:59;;;;;;;4.97;3.70;;;4.10;99.90;;;;;;5040249;28;20445;-73
2020/12/31 12:07:25;;;;;;;5.10;4.40;;;4.30;99.90;;;;;;5039583;28;20221;-74
2020/12/31 12:09:50;;;;;;;4.40;4.00;;;4.30;99.90;;;;;;5036104;28;20553;-73
2020/12/31 12:12:16;;;;;;;4.77;4.23;;;4.40;99.90;;;;;;5034853;28;20622;-73
2020/12/31 12:14:41;;;;;;;5.83;4.43;;;4.30;99.90;;;;;;5037264;28;20183;-73
2020/12/31 12:17:07;;;;;;;4.87;3.83;;;4.40;99.90;;;;;;5039314;28;20234;-73
2020/12/31 12:19:32;;;;;;;5.40;4.30;;;4.20;99.90;;;;;;5039188;28;20206;-75
2020/12/31 12:21:59;;;;;;;5.13;4.63;;;4.20;99.90;;;;;;5040662;28;20423;-73
2020/12/31 12:24:28;;;;;;;5.37;3.77;;;4.10;99.90;;;;;;5036636;28;20273;-73
2020/12/31 12:26:54;;;;;;;8.10;6.33;;;4.20;99.90;;;;;;5038243;28;20404;-73
2020/12/31 12:29:20;;;;;;;4.73;4.23;;;4.20;99.90;;;;;;5043016;28;20419;-74
2020/12/31 12:31:45;;;;;;;6.53;4.87;;;4.30;99.90;;;;;;5038154;28;20618;-73
2020/12/31 12:34:11;;;;;;;4.30;4.00;;;4.40;99.90;;;;;;5038612;28;20193;-73
2020/12/31 12:36:37;;;;;;;4.67;4.27;;;4.30;99.90;;;;;;5036031;28;20194;-72
2020/12/31 12:39:06;;;;;;;4.83;4.13;;;4.40;99.90;;;;;;5037726;28;20219;-73
2020/12/31 12:41:33;;;;;;;5.07;3.73;;;4.30;99.90;;;;;;5034644;28;20274;-74
2020/12/31 12:43:58;;;;;;;10.40;4.33;;;4.40;99.90;;;;;;5040298;28;20863;-73
2020/12/31 12:46:24;;;;;;;4.47;4.00;;;4.60;99.90;;;;;;5036804;28;20466;-73
2020/12/31 12:48:49;;;;;;;4.27;3.83;;;4.60;99.90;;;;;;5040685;28;20556;-73
2020/12/31 12:51:15;;;;;;;4.60;3.63;;;4.50;99.90;;;;;;5039159;28;20676;-73
2020/12/31 12:53:41;;;;;;;4.30;4.00;;;4.50;99.90;;;;;;5037351;28;20222;-73
2020/12/31 12:56:09;;;;;;;4.67;3.73;;;4.50;99.90;;;;;;5038036;28;20188;-74
2020/12/31 12:58:35;;;;;;;4.80;3.60;;;4.40;99.90;;;;;;5028074;28;20681;-73
2020/12/31 13:01:00;;;;;;;3.90;3.00;;;4.30;99.90;;;;;;5033015;28;20461;-73